Time;durP1;ratioP1;P1;durP2;ratioP2;P2;SDS_P1;SDS_P2;PMS_P1;PMS_P2;Temp;Humidity;BMP_temperature;BMP_pressure;BME280_temperature;BME280_humidity;BME280_pressure;Samples;Min_cycle;Max_cycle;Signal;HPM_P1;HPM_P2
2021/12/28 00:00:22;;;;;;;;;;;19.80;39.90;;;;;;5072489;28;19971;-49
2021/12/28 00:02:50;;;;;;;;;;;19.80;39.90;;;;;;5075675;28;19940;-50
2021/12/28 00:05:16;;;;;;;;;;;19.80;39.90;;;;;;5073088;28;19960;-47
2021/12/28 00:07:43;;;;;;;;;;;19.80;39.90;;;;;;5077310;28;19964;-49
2021/12/28 00:10:10;;;;;;;;;;;19.80;39.90;;;;;;5074796;28;19928;-52
2021/12/28 00:12:38;;;;;;;;;;;19.90;40.00;;;;;;5070999;28;19935;-48
2021/12/28 00:15:19;;;;;;;;;;;19.80;39.90;;;;;;5076805;28;20298;-51
2021/12/28 00:18:02;;;;;;;;;;;19.80;39.80;;;;;;5091941;28;19931;-47
2021/12/28 00:20:29;;;;;;;;;;;19.80;39.90;;;;;;5076543;28;19924;-48
2021/12/28 00:22:56;;;;;;;;;;;19.80;39.90;;;;;;5073889;28;19960;-48
2021/12/28 00:25:23;;;;;;;;;;;19.80;39.80;;;;;;5076311;28;19928;-51
2021/12/28 00:27:50;;;;;;;;;;;19.80;39.80;;;;;;5076913;28;19947;-47
2021/12/28 00:30:18;;;;;;;;;;;19.80;39.80;;;;;;5076124;28;19924;-51
2021/12/28 00:32:52;;;;;;;;;;;19.80;39.80;;;;;;5076225;28;19935;-48
2021/12/28 00:35:19;;;;;;;;;;;19.80;39.80;;;;;;5076562;28;19961;-49
2021/12/28 00:37:46;;;;;;;;;;;19.80;39.80;;;;;;5078363;28;19969;-47
2021/12/28 00:40:13;;;;;;;;;;;19.80;39.80;;;;;;5074170;28;19931;-47
2021/12/28 00:42:39;;;;;;;;;;;19.80;39.70;;;;;;5073226;28;19964;-49
2021/12/28 00:45:06;;;;;;;;;;;19.80;39.70;;;;;;5075502;28;20388;-52
2021/12/28 00:47:35;;;;;;;;;;;19.80;39.70;;;;;;5076832;28;19982;-49
2021/12/28 00:50:01;;;;;;;;;;;19.80;39.70;;;;;;5076741;28;20373;-46
2021/12/28 00:52:28;;;;;;;;;;;19.80;39.70;;;;;;5076845;28;19964;-50
2021/12/28 00:54:55;;;;;;;;;;;19.80;39.70;;;;;;5077813;28;19924;-47
2021/12/28 00:57:21;;;;;;;;;;;19.80;39.70;;;;;;5076761;28;19925;-47
2021/12/28 00:59:48;;;;;;;;;;;19.80;39.70;;;;;;5073836;28;19925;-49
2021/12/28 01:02:15;;;;;;;;;;;19.80;39.70;;;;;;5074227;28;19970;-50
2021/12/28 01:04:43;;;;;;;;;;;19.80;39.70;;;;;;5075436;28;19925;-47
2021/12/28 01:07:10;;;;;;;;;;;19.80;39.70;;;;;;5075216;28;20019;-48
2021/12/28 01:09:37;;;;;;;;;;;19.80;39.70;;;;;;5075526;28;19925;-48
2021/12/28 01:12:04;;;;;;;;;;;19.80;39.70;;;;;;5073569;28;19928;-52
2021/12/28 01:14:31;;;;;;;;;;;19.80;39.70;;;;;;5075382;28;19924;-50
2021/12/28 01:16:59;;;;;;;;;;;19.80;39.70;;;;;;5070914;28;20278;-49
2021/12/28 01:19:25;;;;;;;;;;;19.80;39.70;;;;;;5074492;28;19943;-50
2021/12/28 01:21:53;;;;;;;;;;;19.80;39.70;;;;;;5074597;28;19963;-48
2021/12/28 01:24:21;;;;;;;;;;;19.80;39.70;;;;;;5074120;28;20037;-49
2021/12/28 01:26:59;;;;;;;;;;;19.80;39.70;;;;;;5073713;28;20013;-50
2021/12/28 01:29:25;;;;;;;;;;;19.80;39.60;;;;;;5075069;28;19959;-51
2021/12/28 01:31:52;;;;;;;;;;;19.80;39.60;;;;;;5074380;28;20023;-49
2021/12/28 01:34:19;;;;;;;;;;;19.80;39.60;;;;;;5074357;28;19939;-48
2021/12/28 01:36:46;;;;;;;;;;;19.80;39.60;;;;;;5075016;28;20350;-49
2021/12/28 01:39:16;;;;;;;;;;;19.80;39.60;;;;;;5075474;28;19925;-51
2021/12/28 01:41:43;;;;;;;;;;;19.80;39.60;;;;;;5074154;28;20041;-47
2021/12/28 01:44:11;;;;;;;;;;;19.80;39.60;;;;;;5074904;28;20030;-49
2021/12/28 01:46:38;;;;;;;;;;;19.80;39.60;;;;;;5069776;28;20408;-46
2021/12/28 01:49:05;;;;;;;;;;;19.80;39.60;;;;;;5075030;28;19928;-51
2021/12/28 01:51:32;;;;;;;;;;;19.80;39.60;;;;;;5074516;28;19929;-51
2021/12/28 01:53:59;;;;;;;;;;;19.80;39.60;;;;;;5074862;28;19947;-52
2021/12/28 01:56:28;;;;;;;;;;;19.80;39.60;;;;;;5074704;28;19967;-51
2021/12/28 01:58:55;;;;;;;;;;;19.80;39.60;;;;;;5075698;28;20014;-50
2021/12/28 02:01:21;;;;;;;;;;;19.80;39.60;;;;;;5073221;28;20030;-48
2021/12/28 02:03:48;;;;;;;;;;;19.80;39.60;;;;;;5073901;28;20507;-51
2021/12/28 02:06:16;;;;;;;;;;;19.70;40.10;;;;;;5073714;28;20024;-51
2021/12/28 02:08:42;;;;;;;;;;;19.80;39.60;;;;;;5073666;28;19943;-49
2021/12/28 02:11:09;;;;;;;;;;;19.70;39.50;;;;;;5073185;28;19924;-52
2021/12/28 02:13:38;;;;;;;;;;;19.70;39.50;;;;;;5073571;28;20385;-50
2021/12/28 02:16:05;;;;;;;;;;;19.70;39.50;;;;;;5074270;28;19934;-47
2021/12/28 02:18:32;;;;;;;;;;;19.80;39.50;;;;;;5070608;28;20461;-47
2021/12/28 02:21:00;;;;;;;;;;;19.70;39.40;;;;;;5073496;28;19989;-54
2021/12/28 02:23:27;;;;;;;;;;;19.70;39.40;;;;;;5074408;28;19924;-51
2021/12/28 02:25:54;;;;;;;;;;;19.70;39.40;;;;;;5073214;28;20015;-49
2021/12/28 02:28:21;;;;;;;;;;;19.70;39.40;;;;;;5072879;28;19925;-49
2021/12/28 02:30:48;;;;;;;;;;;19.70;39.40;;;;;;5073731;28;19931;-47
2021/12/28 02:33:16;;;;;;;;;;;19.70;39.40;;;;;;5072085;28;19925;-51
2021/12/28 02:35:42;;;;;;;;;;;19.70;39.40;;;;;;5072590;28;19982;-47
2021/12/28 02:38:11;;;;;;;;;;;19.70;39.40;;;;;;5071891;28;19924;-51
2021/12/28 02:40:38;;;;;;;;;;;19.70;39.40;;;;;;5070040;28;19960;-50
2021/12/28 02:43:06;;;;;;;;;;;19.70;39.40;;;;;;5073076;28;19925;-48
2021/12/28 02:45:34;;;;;;;;;;;19.70;39.40;;;;;;5074018;28;19929;-48
2021/12/28 02:48:02;;;;;;;;;;;19.70;39.40;;;;;;5073053;28;19935;-48
2021/12/28 02:50:31;;;;;;;;;;;19.70;39.40;;;;;;5070138;28;19931;-47
2021/12/28 02:52:58;;;;;;;;;;;19.70;39.30;;;;;;5067787;28;19924;-50
2021/12/28 02:55:28;;;;;;;;;;;19.70;39.40;;;;;;5071427;28;19928;-48
2021/12/28 02:57:55;;;;;;;;;;;19.70;39.30;;;;;;5071670;28;20011;-48
2021/12/28 03:00:32;;;;;;;;;;;19.70;39.30;;;;;;5071661;28;19970;-51
2021/12/28 03:02:59;;;;;;;;;;;19.70;39.40;;;;;;5072146;28;19925;-47
2021/12/28 03:05:26;;;;;;;;;;;19.70;39.30;;;;;;5069533;28;19929;-48
2021/12/28 03:07:53;;;;;;;;;;;19.70;39.30;;;;;;5071738;28;19992;-48
2021/12/28 03:10:20;;;;;;;;;;;19.70;39.30;;;;;;5071812;28;19974;-50
2021/12/28 03:12:48;;;;;;;;;;;19.70;39.30;;;;;;5071916;28;19970;-49
2021/12/28 03:15:14;;;;;;;;;;;19.70;39.30;;;;;;5072575;28;19928;-52
2021/12/28 03:17:41;;;;;;;;;;;19.70;39.30;;;;;;5072428;28;20006;-48
2021/12/28 03:20:08;;;;;;;;;;;19.70;39.30;;;;;;5073106;28;19929;-46
2021/12/28 03:22:36;;;;;;;;;;;19.70;39.30;;;;;;5071738;28;20019;-49
2021/12/28 03:25:03;;;;;;;;;;;19.70;39.30;;;;;;5074411;28;20309;-49
2021/12/28 03:27:30;;;;;;;;;;;19.70;39.20;;;;;;5074858;28;19936;-49
2021/12/28 03:29:58;;;;;;;;;;;19.70;39.20;;;;;;5075005;28;19954;-50
2021/12/28 03:32:25;;;;;;;;;;;19.70;39.30;;;;;;5075462;28;19935;-49
2021/12/28 03:34:52;;;;;;;;;;;19.70;39.20;;;;;;5074958;28;19925;-49
2021/12/28 03:37:18;;;;;;;;;;;19.70;39.20;;;;;;5073642;28;20326;-48
2021/12/28 03:39:45;;;;;;;;;;;19.70;39.20;;;;;;5072646;28;19929;-49
2021/12/28 03:42:12;;;;;;;;;;;19.70;39.20;;;;;;5073013;28;20062;-51
2021/12/28 03:44:39;;;;;;;;;;;19.70;39.20;;;;;;5067518;28;20014;-47
2021/12/28 03:47:07;;;;;;;;;;;19.70;39.20;;;;;;5074566;28;20443;-49
2021/12/28 03:49:34;;;;;;;;;;;19.70;39.20;;;;;;5073366;28;19932;-47
2021/12/28 03:52:01;;;;;;;;;;;19.70;39.20;;;;;;5074871;28;19968;-48
2021/12/28 03:54:28;;;;;;;;;;;19.70;39.20;;;;;;5074599;28;19928;-48
2021/12/28 03:56:56;;;;;;;;;;;19.70;39.20;;;;;;5073016;28;20027;-50
2021/12/28 03:59:23;;;;;;;;;;;19.70;39.20;;;;;;5073756;28;19970;-48
2021/12/28 04:01:50;;;;;;;;;;;19.70;39.20;;;;;;5073098;28;20332;-51
2021/12/28 04:04:18;;;;;;;;;;;19.70;39.20;;;;;;5073777;28;19924;-49
2021/12/28 04:06:45;;;;;;;;;;;19.70;39.20;;;;;;5075177;28;19961;-48
2021/12/28 04:09:12;;;;;;;;;;;19.70;39.20;;;;;;5073485;28;20451;-51
2021/12/28 04:11:39;;;;;;;;;;;19.70;39.10;;;;;;5072348;28;19928;-47
2021/12/28 04:14:07;;;;;;;;;;;19.70;39.20;;;;;;5071449;28;19931;-52
2021/12/28 04:16:34;;;;;;;;;;;19.70;39.20;;;;;;5072096;28;20019;-48
2021/12/28 04:19:01;;;;;;;;;;;19.70;39.10;;;;;;5072768;28;19932;-49
2021/12/28 04:21:29;;;;;;;;;;;19.70;39.10;;;;;;5073020;28;20384;-50
2021/12/28 04:23:55;;;;;;;;;;;19.70;39.10;;;;;;5072902;28;19935;-51
2021/12/28 04:26:22;;;;;;;;;;;19.70;39.10;;;;;;5073341;28;19951;-48
2021/12/28 04:28:49;;;;;;;;;;;19.70;39.10;;;;;;5071734;28;19947;-51
2021/12/28 04:31:16;;;;;;;;;;;19.70;39.10;;;;;;5072059;28;19930;-50
2021/12/28 04:33:43;;;;;;;;;;;19.70;39.10;;;;;;5072655;28;19930;-52
2021/12/28 04:36:10;;;;;;;;;;;19.70;39.10;;;;;;5072597;28;19999;-48
2021/12/28 04:38:38;;;;;;;;;;;19.70;39.10;;;;;;5072617;28;19978;-50
2021/12/28 04:41:05;;;;;;;;;;;19.70;39.10;;;;;;5072506;28;20592;-50
2021/12/28 04:43:32;;;;;;;;;;;19.70;39.10;;;;;;5072398;28;20015;-47
2021/12/28 04:45:59;;;;;;;;;;;19.70;39.10;;;;;;5072098;28;20373;-50
2021/12/28 04:48:25;;;;;;;;;;;19.70;39.10;;;;;;5075290;28;20015;-50
2021/12/28 04:50:52;;;;;;;;;;;19.70;39.00;;;;;;5075612;28;19960;-48
2021/12/28 04:53:19;;;;;;;;;;;19.70;39.00;;;;;;5075291;28;20340;-51
2021/12/28 04:55:48;;;;;;;;;;;19.60;39.00;;;;;;5075184;28;19974;-50
2021/12/28 04:58:15;;;;;;;;;;;19.70;39.00;;;;;;5074484;28;19924;-48
2021/12/28 05:00:41;;;;;;;;;;;19.70;39.00;;;;;;5075259;28;19987;-47
2021/12/28 05:03:08;;;;;;;;;;;19.70;39.10;;;;;;5075983;28;19929;-48
2021/12/28 05:05:35;;;;;;;;;;;19.60;39.00;;;;;;5075909;28;20015;-47
2021/12/28 05:08:03;;;;;;;;;;;19.70;39.00;;;;;;5077121;28;19939;-48
2021/12/28 05:10:30;;;;;;;;;;;19.60;39.00;;;;;;5075145;28;19974;-53
2021/12/28 05:13:00;;;;;;;;;;;19.70;39.00;;;;;;5075412;28;20030;-47
2021/12/28 05:15:27;;;;;;;;;;;19.60;39.00;;;;;;5074863;28;20297;-51
2021/12/28 05:17:54;;;;;;;;;;;19.60;38.90;;;;;;5075195;28;19970;-53
2021/12/28 05:20:20;;;;;;;;;;;19.60;38.90;;;;;;5076333;28;19931;-50
2021/12/28 05:22:47;;;;;;;;;;;19.60;38.90;;;;;;5075213;28;19967;-51
2021/12/28 05:25:14;;;;;;;;;;;19.60;38.90;;;;;;5075518;28;19971;-48
2021/12/28 05:27:41;;;;;;;;;;;19.60;38.90;;;;;;5075110;28;19924;-49
2021/12/28 05:30:10;;;;;;;;;;;19.60;38.90;;;;;;5075493;28;19925;-49
2021/12/28 05:32:37;;;;;;;;;;;19.60;38.90;;;;;;5067435;28;19932;-51
2021/12/28 05:35:04;;;;;;;;;;;19.60;38.90;;;;;;5076844;28;19934;-50
2021/12/28 05:37:31;;;;;;;;;;;19.60;38.90;;;;;;5076333;28;19924;-50
2021/12/28 05:39:57;;;;;;;;;;;19.60;38.90;;;;;;5076272;28;19924;-49
2021/12/28 05:42:24;;;;;;;;;;;19.60;38.90;;;;;;5075994;28;19932;-49
2021/12/28 05:44:51;;;;;;;;;;;19.60;38.90;;;;;;5075816;28;19925;-49
2021/12/28 05:47:20;;;;;;;;;;;19.60;38.90;;;;;;5072299;28;19963;-47
2021/12/28 05:49:47;;;;;;;;;;;19.60;38.90;;;;;;5074651;28;19924;-47
2021/12/28 05:52:13;;;;;;;;;;;19.60;38.90;;;;;;5075122;28;19932;-47
2021/12/28 05:54:40;;;;;;;;;;;19.60;38.90;;;;;;5076600;28;19996;-49
2021/12/28 05:57:07;;;;;;;;;;;19.60;38.90;;;;;;5074992;28;19930;-49
2021/12/28 05:59:34;;;;;;;;;;;19.60;38.90;;;;;;5075054;28;19928;-48
2021/12/28 06:02:01;;;;;;;;;;;19.60;38.80;;;;;;5073396;28;19924;-50
2021/12/28 06:04:29;;;;;;;;;;;19.60;38.90;;;;;;5074969;28;19931;-53
2021/12/28 06:06:56;;;;;;;;;;;19.60;38.90;;;;;;5074672;28;19928;-51
2021/12/28 06:09:22;;;;;;;;;;;19.60;38.80;;;;;;5075118;28;19955;-50
2021/12/28 06:11:49;;;;;;;;;;;19.60;38.80;;;;;;5074614;28;19967;-48
2021/12/28 06:14:16;;;;;;;;;;;19.60;38.80;;;;;;5074771;28;19928;-47
2021/12/28 06:16:43;;;;;;;;;;;19.60;38.80;;;;;;5074420;28;19974;-47
2021/12/28 06:19:09;;;;;;;;;;;19.60;38.80;;;;;;5075019;28;19974;-50
2021/12/28 06:21:38;;;;;;;;;;;19.60;38.80;;;;;;5074510;28;19993;-47
2021/12/28 06:24:05;;;;;;;;;;;19.60;38.80;;;;;;5068266;28;19925;-47
2021/12/28 06:26:32;;;;;;;;;;;19.60;38.80;;;;;;5075347;28;19924;-51
2021/12/28 06:28:59;;;;;;;;;;;19.60;38.80;;;;;;5073977;28;20021;-50
2021/12/28 06:31:28;;;;;;;;;;;19.60;38.80;;;;;;5075901;28;19968;-51
2021/12/28 06:33:55;;;;;;;;;;;19.60;38.80;;;;;;5074805;28;19956;-47
2021/12/28 06:36:21;;;;;;;;;;;19.60;38.80;;;;;;5074915;28;20445;-49
2021/12/28 06:38:49;;;;;;;;;;;19.60;38.80;;;;;;5077354;28;19964;-49
2021/12/28 06:41:16;;;;;;;;;;;19.60;38.80;;;;;;5086448;28;19924;-53
2021/12/28 06:43:43;;;;;;;;;;;19.70;38.90;;;;;;5074174;28;19928;-51
2021/12/28 06:46:10;;;;;;;;;;;19.60;38.80;;;;;;5074569;28;19939;-53
2021/12/28 06:48:37;;;;;;;;;;;19.60;38.70;;;;;;5075192;28;19946;-48
2021/12/28 06:51:05;;;;;;;;;;;19.60;38.80;;;;;;5073759;28;19979;-46
2021/12/28 06:53:31;;;;;;;;;;;19.60;38.80;;;;;;5072804;28;19924;-49
2021/12/28 06:55:59;;;;;;;;;;;19.60;38.70;;;;;;5071224;28;19935;-50
2021/12/28 06:58:26;;;;;;;;;;;19.60;38.70;;;;;;5074146;28;20008;-48
2021/12/28 07:00:53;;;;;;;;;;;19.60;38.70;;;;;;5073867;28;19987;-51
2021/12/28 07:03:20;;;;;;;;;;;19.60;38.70;;;;;;5070526;28;20369;-51
2021/12/28 07:05:47;;;;;;;;;;;19.60;38.70;;;;;;5072738;28;20520;-53
2021/12/28 07:08:14;;;;;;;;;;;19.60;38.70;;;;;;5070435;28;19928;-47
2021/12/28 07:10:41;;;;;;;;;;;19.60;38.70;;;;;;5065269;28;20439;-49
2021/12/28 07:13:09;;;;;;;;;;;19.60;38.70;;;;;;5073805;28;19925;-48
2021/12/28 07:15:35;;;;;;;;;;;19.60;38.70;;;;;;5074382;28;19924;-46
2021/12/28 07:18:02;;;;;;;;;;;19.60;38.70;;;;;;5074552;28;19924;-51
2021/12/28 07:20:29;;;;;;;;;;;19.60;38.70;;;;;;5056897;28;20343;-50
2021/12/28 07:22:56;;;;;;;;;;;19.60;38.70;;;;;;5075215;28;19947;-47
2021/12/28 07:25:24;;;;;;;;;;;19.60;38.70;;;;;;5074193;28;20011;-48
2021/12/28 07:27:51;;;;;;;;;;;19.60;38.70;;;;;;5073673;28;20484;-49
2021/12/28 07:30:19;;;;;;;;;;;19.60;38.70;;;;;;5072776;28;19928;-51
2021/12/28 07:32:46;;;;;;;;;;;19.60;38.70;;;;;;5065997;28;20019;-47
2021/12/28 07:35:13;;;;;;;;;;;19.60;38.70;;;;;;5070364;28;20455;-48
2021/12/28 07:37:40;;;;;;;;;;;19.60;38.70;;;;;;5069435;28;19937;-48
2021/12/28 07:40:07;;;;;;;;;;;19.60;38.70;;;;;;5071498;28;19995;-47
2021/12/28 07:42:35;;;;;;;;;;;19.60;38.70;;;;;;5068395;28;19967;-48
2021/12/28 07:45:02;;;;;;;;;;;19.60;38.70;;;;;;5066885;28;19935;-47
2021/12/28 07:47:30;;;;;;;;;;;19.60;38.70;;;;;;5067616;28;20404;-46
2021/12/28 07:49:57;;;;;;;;;;;19.60;38.70;;;;;;5069917;28;19925;-47
2021/12/28 07:52:24;;;;;;;;;;;19.60;38.70;;;;;;5067109;28;20431;-48
2021/12/28 07:54:50;;;;;;;;;;;19.60;38.70;;;;;;5068084;28;19924;-48
2021/12/28 07:57:17;;;;;;;;;;;19.60;38.70;;;;;;5070057;28;20003;-46
2021/12/28 07:59:44;;;;;;;;;;;19.60;38.70;;;;;;5069477;28;19963;-48
2021/12/28 08:02:10;;;;;;;;;;;19.60;38.70;;;;;;5068155;28;19955;-48
2021/12/28 08:04:39;;;;;;;;;;;19.60;38.70;;;;;;5069057;28;19986;-47
2021/12/28 08:07:06;;;;;;;;;;;19.60;38.70;;;;;;5070798;28;19952;-51
2021/12/28 08:09:32;;;;;;;;;;;19.60;38.70;;;;;;5063673;28;19982;-48
2021/12/28 08:11:59;;;;;;;;;;;19.60;38.70;;;;;;5067858;28;20026;-48
2021/12/28 08:14:26;;;;;;;;;;;19.60;38.70;;;;;;5070131;28;20385;-48
2021/12/28 08:16:53;;;;;;;;;;;19.60;38.70;;;;;;5069499;28;19930;-51
2021/12/28 08:19:19;;;;;;;;;;;19.60;38.70;;;;;;5069887;28;19926;-49
2021/12/28 08:21:47;;;;;;;;;;;19.60;38.70;;;;;;5069649;28;20385;-50
2021/12/28 08:24:14;;;;;;;;;;;19.60;38.70;;;;;;5071610;28;20603;-51
2021/12/28 08:26:41;;;;;;;;;;;19.60;38.70;;;;;;5070623;28;20354;-49
2021/12/28 08:29:08;;;;;;;;;;;19.60;38.70;;;;;;5075289;28;19988;-47
2021/12/28 08:31:34;;;;;;;;;;;19.60;38.70;;;;;;5073239;28;19964;-49
2021/12/28 08:34:02;;;;;;;;;;;19.60;38.70;;;;;;5074067;28;19931;-51
2021/12/28 08:36:29;;;;;;;;;;;19.60;38.70;;;;;;5073875;28;19931;-50
2021/12/28 08:38:57;;;;;;;;;;;19.60;38.70;;;;;;5075480;28;20022;-47
2021/12/28 08:41:24;;;;;;;;;;;19.60;38.70;;;;;;5078211;28;20305;-50
2021/12/28 08:43:50;;;;;;;;;;;19.60;38.60;;;;;;5076164;28;19970;-47
2021/12/28 08:46:17;;;;;;;;;;;19.60;37.70;;;;;;5076832;28;19924;-46
2021/12/28 08:48:45;;;;;;;;;;;19.60;37.40;;;;;;5076142;28;19924;-49
2021/12/28 08:51:11;;;;;;;;;;;19.60;37.50;;;;;;5076400;28;19924;-49
2021/12/28 08:53:38;;;;;;;;;;;19.50;37.40;;;;;;5077238;28;19964;-50
2021/12/28 08:56:07;;;;;;;;;;;19.50;37.50;;;;;;5075223;28;20175;-47
2021/12/28 08:58:33;;;;;;;;;;;19.50;37.70;;;;;;5075456;28;19928;-50
2021/12/28 09:01:00;;;;;;;;;;;19.50;37.80;;;;;;5071003;28;19932;-47
2021/12/28 09:03:27;;;;;;;;;;;19.50;37.90;;;;;;5074370;28;19936;-48
2021/12/28 09:05:54;;;;;;;;;;;19.50;37.90;;;;;;5067474;28;19924;-49
2021/12/28 09:08:21;;;;;;;;;;;19.50;37.80;;;;;;5072698;28;20415;-49
2021/12/28 09:10:48;;;;;;;;;;;19.50;37.80;;;;;;5073889;28;19928;-48
2021/12/28 09:13:17;;;;;;;;;;;19.50;37.70;;;;;;5074578;28;19971;-48
2021/12/28 09:15:44;;;;;;;;;;;19.50;37.60;;;;;;5074338;28;19924;-50
2021/12/28 09:18:13;;;;;;;;;;;19.50;37.40;;;;;;5071768;28;19982;-51
2021/12/28 09:20:40;;;;;;;;;;;19.50;37.40;;;;;;5066110;28;19940;-49
2021/12/28 09:23:07;;;;;;;;;;;19.50;37.20;;;;;;5071233;28;19986;-49
2021/12/28 09:25:34;;;;;;;;;;;19.50;37.10;;;;;;5074757;28;19960;-49
2021/12/28 09:28:01;;;;;;;;;;;19.50;37.10;;;;;;5073280;28;19936;-50
2021/12/28 09:30:29;;;;;;;;;;;19.50;37.00;;;;;;5072398;28;19981;-46
2021/12/28 09:32:56;;;;;;;;;;;19.50;37.00;;;;;;5072886;28;19956;-48
2021/12/28 09:35:23;;;;;;;;;;;19.50;37.00;;;;;;5071156;28;20032;-50
2021/12/28 09:37:50;;;;;;;;;;;19.50;36.90;;;;;;5072587;28;20476;-46
2021/12/28 09:40:16;;;;;;;;;;;19.50;36.90;;;;;;5070104;28;19970;-48
2021/12/28 09:42:43;;;;;;;;;;;19.50;36.80;;;;;;5070171;28;19928;-46
2021/12/28 09:45:10;;;;;;;;;;;19.50;36.70;;;;;;5070299;28;19928;-48
2021/12/28 09:47:41;;;;;;;;;;;19.50;36.80;;;;;;5069419;28;20039;-51
2021/12/28 09:50:09;;;;;;;;;;;19.50;36.80;;;;;;5061834;28;19928;-48
2021/12/28 09:52:35;;;;;;;;;;;19.50;37.00;;;;;;5072311;28;20670;-46
2021/12/28 09:55:02;;;;;;;;;;;19.50;37.10;;;;;;5065398;28;19924;-55
2021/12/28 09:57:29;;;;;;;;;;;19.50;35.60;;;;;;5069998;28;19929;-60
2021/12/28 09:59:56;;;;;;;;;;;19.40;33.70;;;;;;5070612;28;19940;-59
2021/12/28 10:02:23;;;;;;;;;;;19.30;32.60;;;;;;5069862;28;19928;-60
2021/12/28 10:04:58;;;;;;;;;;;19.20;32.20;;;;;;5068529;28;20908;-61
2021/12/28 10:07:25;;;;;;;;;;;19.00;31.70;;;;;;5070402;28;20240;-59
2021/12/28 10:09:52;;;;;;;;;;;18.90;32.20;;;;;;5059292;28;20299;-62
2021/12/28 10:12:28;;;;;;;;;;;18.80;32.90;;;;;;5063107;28;19960;-49
2021/12/28 10:14:55;;;;;;;;;;;18.70;32.70;;;;;;5069763;28;19924;-62
2021/12/28 10:17:23;;;;;;;;;;;18.60;33.50;;;;;;5085502;28;20378;-50
2021/12/28 10:19:50;;;;;;;;;;;18.60;34.20;;;;;;5071294;28;19936;-49
2021/12/28 10:22:23;;;;;;;;;;;18.60;35.00;;;;;;5069661;28;19970;-49
2021/12/28 10:24:50;;;;;;;;;;;18.60;35.30;;;;;;5069868;28;20443;-52
2021/12/28 10:27:17;;;;;;;;;;;18.60;35.50;;;;;;5062547;28;20031;-50
2021/12/28 10:29:44;;;;;;;;;;;18.70;35.80;;;;;;5071718;28;20043;-52
2021/12/28 10:32:17;;;;;;;;;;;18.70;36.00;;;;;;5070327;28;19985;-51
2021/12/28 10:34:45;;;;;;;;;;;18.70;36.10;;;;;;5069614;28;20437;-49
2021/12/28 10:37:15;;;;;;;;;;;18.70;36.10;;;;;;5069582;28;19990;-50
2021/12/28 10:39:44;;;;;;;;;;;18.80;36.90;;;;;;5060035;28;20019;-53
2021/12/28 10:42:11;;;;;;;;;;;18.80;36.40;;;;;;5069496;28;19930;-52
2021/12/28 10:44:53;;;;;;;;;;;18.90;36.50;;;;;;5068828;28;19924;-48
2021/12/28 10:47:26;;;;;;;;;;;18.90;36.50;;;;;;5085939;28;20293;-52
2021/12/28 10:49:53;;;;;;;;;;;18.90;36.60;;;;;;5062095;28;19929;-48
2021/12/28 10:52:25;;;;;;;;;;;18.90;36.60;;;;;;5061211;28;20090;-56
2021/12/28 10:54:53;;;;;;;;;;;19.00;36.80;;;;;;5068509;28;20123;-48
2021/12/28 10:57:20;;;;;;;;;;;19.00;36.80;;;;;;5068807;28;19925;-49
2021/12/28 10:59:47;;;;;;;;;;;19.00;36.90;;;;;;5068231;28;20055;-53
2021/12/28 11:02:22;;;;;;;;;;;19.00;36.90;;;;;;5067710;28;19960;-47
2021/12/28 11:04:48;;;;;;;;;;;19.00;36.90;;;;;;5068603;28;19935;-52
2021/12/28 11:07:15;;;;;;;;;;;19.10;37.10;;;;;;5069413;28;20008;-52
2021/12/28 11:09:46;;;;;;;;;;;19.10;37.10;;;;;;5076637;28;19929;-55
2021/12/28 11:12:14;;;;;;;;;;;19.10;37.20;;;;;;5071750;28;19970;-48
2021/12/28 11:14:42;;;;;;;;;;;19.10;37.30;;;;;;5072407;28;21241;-49
2021/12/28 11:17:10;;;;;;;;;;;19.10;37.30;;;;;;5073281;28;20019;-52
2021/12/28 11:19:37;;;;;;;;;;;19.20;37.40;;;;;;5073607;28;19943;-51
2021/12/28 11:22:05;;;;;;;;;;;19.20;37.50;;;;;;5073446;28;20378;-52
2021/12/28 11:24:33;;;;;;;;;;;19.20;37.50;;;;;;5073992;28;19935;-49
2021/12/28 11:26:59;;;;;;;;;;;19.20;37.60;;;;;;5073080;28;19956;-52
2021/12/28 11:29:31;;;;;;;;;;;19.20;37.60;;;;;;5059276;28;19929;-51
2021/12/28 11:32:00;;;;;;;;;;;19.20;37.60;;;;;;5052283;28;19931;-52
2021/12/28 11:34:28;;;;;;;;;;;19.20;37.60;;;;;;5069501;28;19924;-54
2021/12/28 11:36:55;;;;;;;;;;;19.20;37.60;;;;;;5068451;28;19966;-47
2021/12/28 11:39:23;;;;;;;;;;;19.30;37.70;;;;;;5087359;28;20010;-50
2021/12/28 11:41:50;;;;;;;;;;;19.30;37.80;;;;;;5091873;28;20041;-54
2021/12/28 11:44:17;;;;;;;;;;;19.20;37.70;;;;;;5089060;28;20022;-49
2021/12/28 11:46:45;;;;;;;;;;;19.30;37.90;;;;;;5069449;28;19960;-49
2021/12/28 11:49:14;;;;;;;;;;;19.30;38.10;;;;;;5070362;28;19932;-52
2021/12/28 11:51:41;;;;;;;;;;;19.30;38.30;;;;;;5050465;28;19937;-54
2021/12/28 11:54:09;;;;;;;;;;;19.30;38.40;;;;;;5049219;28;20004;-52
2021/12/28 11:56:36;;;;;;;;;;;19.30;38.40;;;;;;5070279;28;20033;-51
2021/12/28 11:59:05;;;;;;;;;;;19.30;38.50;;;;;;5074435;28;20410;-53
2021/12/28 12:01:36;;;;;;;;;;;19.40;38.60;;;;;;5054563;28;20035;-55
2021/12/28 12:04:04;;;;;;;;;;;19.40;38.60;;;;;;5055876;28;19925;-53
2021/12/28 12:06:46;;;;;;;;;;;19.40;38.60;;;;;;5071450;28;19932;-53
2021/12/28 12:09:13;;;;;;;;;;;19.40;38.70;;;;;;5088089;28;19954;-51
2021/12/28 12:11:53;;;;;;;;;;;19.40;38.70;;;;;;5074739;28;19931;-53
2021/12/28 12:14:20;;;;;;;;;;;19.40;38.70;;;;;;5072375;28;19924;-50
2021/12/28 12:16:47;;;;;;;;;;;19.40;38.70;;;;;;5072194;28;19925;-52
2021/12/28 12:19:15;;;;;;;;;;;19.40;38.80;;;;;;5073489;28;19931;-52
2021/12/28 12:21:42;;;;;;;;;;;19.40;38.70;;;;;;5074286;28;19929;-54
2021/12/28 12:24:09;;;;;;;;;;;19.40;38.80;;;;;;5074186;28;20027;-53
2021/12/28 12:26:35;;;;;;;;;;;19.40;38.80;;;;;;5074574;28;20015;-50
2021/12/28 12:29:02;;;;;;;;;;;19.40;38.90;;;;;;5074770;28;19959;-47
2021/12/28 12:31:30;;;;;;;;;;;19.40;39.00;;;;;;5072057;28;19924;-49
2021/12/28 12:33:57;;;;;;;;;;;19.50;39.30;;;;;;5073442;28;19939;-51
2021/12/28 12:36:30;;;;;;;;;;;19.50;39.30;;;;;;5072742;28;20031;-51
2021/12/28 12:38:57;;;;;;;;;;;19.50;39.40;;;;;;5073454;28;19925;-54
2021/12/28 12:41:25;;;;;;;;;;;19.50;39.50;;;;;;5072378;28;19931;-50
2021/12/28 12:43:55;;;;;;;;;;;19.50;39.50;;;;;;5072211;28;19962;-51
2021/12/28 12:46:24;;;;;;;;;;;19.50;39.80;;;;;;5072526;28;19934;-53
2021/12/28 12:49:14;;;;;;;;;;;19.50;39.80;;;;;;5072727;28;20332;-52
2021/12/28 12:51:47;;;;;;;;;;;19.50;39.90;;;;;;5062978;28;20047;-56
2021/12/28 12:54:21;;;;;;;;;;;19.60;40.00;;;;;;5071935;28;20014;-59
2021/12/28 12:57:08;;;;;;;;;;;19.60;40.00;;;;;;5088622;28;20358;-55
2021/12/28 12:59:39;;;;;;;;;;;19.60;40.00;;;;;;5070921;28;20011;-51
2021/12/28 13:02:06;;;;;;;;;;;19.60;40.20;;;;;;5072053;28;20024;-53
2021/12/28 13:04:40;;;;;;;;;;;19.60;40.30;;;;;;5071692;28;19924;-55
2021/12/28 13:07:11;;;;;;;;;;;19.60;40.40;;;;;;5069587;28;19974;-53
2021/12/28 13:09:38;;;;;;;;;;;19.60;40.40;;;;;;5091611;28;19971;-49
2021/12/28 13:12:05;;;;;;;;;;;19.60;40.50;;;;;;5073706;28;19924;-51
2021/12/28 13:14:32;;;;;;;;;;;19.60;40.60;;;;;;5071733;28;20381;-52
2021/12/28 13:16:59;;;;;;;;;;;19.60;40.60;;;;;;5071489;28;19964;-52
2021/12/28 13:19:25;;;;;;;;;;;19.70;40.70;;;;;;5071999;28;19950;-49
2021/12/28 13:21:56;;;;;;;;;;;19.70;40.70;;;;;;5071319;28;19928;-56
2021/12/28 13:24:24;;;;;;;;;;;19.70;40.70;;;;;;5072980;28;20324;-48
2021/12/28 13:26:51;;;;;;;;;;;19.70;40.70;;;;;;5071006;28;19931;-53
2021/12/28 13:29:22;;;;;;;;;;;19.70;40.70;;;;;;5057654;28;20294;-48
2021/12/28 13:31:49;;;;;;;;;;;19.70;40.80;;;;;;5050936;28;19925;-52
2021/12/28 13:34:16;;;;;;;;;;;19.70;40.80;;;;;;5051635;28;19925;-48
2021/12/28 13:36:48;;;;;;;;;;;19.70;40.90;;;;;;5064872;28;20027;-49
2021/12/28 13:39:15;;;;;;;;;;;19.70;41.00;;;;;;5072881;28;19925;-54
2021/12/28 13:41:49;;;;;;;;;;;19.70;41.00;;;;;;5068048;28;19964;-48
2021/12/28 13:44:16;;;;;;;;;;;19.70;40.90;;;;;;5070935;28;20341;-49
2021/12/28 13:46:43;;;;;;;;;;;19.80;40.90;;;;;;5065919;28;19981;-50
2021/12/28 13:49:12;;;;;;;;;;;19.80;40.90;;;;;;5070325;28;20015;-47
2021/12/28 13:51:39;;;;;;;;;;;19.80;40.80;;;;;;5067259;28;19925;-47
2021/12/28 13:54:06;;;;;;;;;;;19.80;40.80;;;;;;5069561;28;20315;-49
2021/12/28 13:56:35;;;;;;;;;;;19.80;40.70;;;;;;5069119;28;19964;-49
2021/12/28 13:59:04;;;;;;;;;;;19.70;40.60;;;;;;5062431;28;19931;-49
2021/12/28 14:01:31;;;;;;;;;;;19.70;40.60;;;;;;5068577;28;20020;-47
2021/12/28 14:03:59;;;;;;;;;;;19.70;40.50;;;;;;5067193;28;19930;-55
2021/12/28 14:06:26;;;;;;;;;;;19.80;40.70;;;;;;5065949;28;19925;-50
2021/12/28 14:08:53;;;;;;;;;;;19.80;40.60;;;;;;5070720;28;19931;-47
2021/12/28 14:11:29;;;;;;;;;;;19.70;40.50;;;;;;5068986;28;19925;-49
2021/12/28 14:13:56;;;;;;;;;;;19.70;40.50;;;;;;5071475;28;19925;-51
2021/12/28 14:16:24;;;;;;;;;;;19.80;40.50;;;;;;5059254;28;20019;-50
2021/12/28 14:18:51;;;;;;;;;;;19.80;40.50;;;;;;5066841;28;19985;-49